Arland, Wisconsin
Current Conditions -  °F | °C
As of 10:35 PM on Friday 24 Oct 2014 (Local Time) from KUBE Reporting Station
Haze Haze  
Wind Chill: 52°   Ceiling: 200
Heat Index: 52°   Visibility: 1.2mi
Dew Point: 52°   Wind: 5mph
Humidity: 100%   Direction: 220°SW
Pressure: 29.84"   Gusts: NA
Location:  45.3064°N, 92.1345°W
Report Text: KUBE 250335Z AUTO 22004KT 1 1/4SM BR OVC002 11/11 A2984 RMK AO2
Loading
Personal Weather Stations






























Interactive Weather Map
Tropical Storm Tracking
New forecast layout! Learn more

10-Day Weather Forecast

Advertisements
Track Severe Weather on mobile